Flight Track Log - Related Links

Times and Time Zones

All times are in EDT time to prevent confusion due to time zone crossing. See the SWA850 flight status page for this flight to view local times or setup timezone preferences in your user account.

Time Position Orientation Groundspeed Altitude Reporting Facility
EDT Latitude Longitude Course Direction KTS MPH feet Rate Location/Type
Thu 06:33:46 PM 33.9500 -118.4500 270° West 147 169 1,400  Level Southern California TRACON
Thu 06:34:41 PM 33.9500 -118.5167 270° West 246 283 3,600 3,105 Climbing Southern California TRACON
Thu 06:35:40 PM 33.9333 -118.6000 256° West 283 326 7,300 3,506 Climbing Southern California TRACON
Thu 06:36:10 PM 33.9408 -118.6442 282° West 286 329 8,800 1,109 Climbing Los Angeles Center
Thu 06:37:12 PM 34.0197 -118.6711 344° North 302 348 9,000 97 Climbing Los Angeles Center
Thu 06:38:14 PM 34.0964 -118.6594 North 300 345 9,000 968 Level Los Angeles Center
Thu 06:39:16 PM 34.1761 -118.6306 17° North 303 349 11,000 2,323 Climbing Los Angeles Center
Thu 06:40:18 PM 34.2775 -118.6672 343° North 316 364 13,800 2,496 Climbing Los Angeles Center
Thu 06:41:21 PM 34.3653 -118.6994 343° North 327 376 16,200 2,208 Climbing Los Angeles Center
Thu 06:42:23 PM 34.4747 -118.7392 343° North 406 467 18,400 2,419 Climbing Los Angeles Center
Thu 06:43:25 PM 34.5856 -118.7808 343° North 415 478 21,200 2,468 Climbing Los Angeles Center
Thu 06:44:27 PM 34.7011 -118.8258 342° North 429 494 23,500 2,177 Climbing Los Angeles Center
Thu 06:45:29 PM 34.8186 -118.8811 339° North 453 521 25,700 2,274 Climbing Los Angeles Center
Thu 06:46:31 PM 34.9406 -118.9972 322° Northwest 462 532 28,200 2,544 Climbing Los Angeles Center
Thu 06:47:34 PM 35.0408 -119.0953 321° Northwest 463 533 31,000 2,544 Climbing Los Angeles Center
Thu 06:48:36 PM 35.1428 -119.1894 323° Northwest 461 531 33,500 2,032 Climbing Los Angeles Center
Thu 06:49:38 PM 35.2381 -119.2853 321° Northwest 453 521 35,200 1,210 Climbing Los Angeles Center
Thu 06:50:40 PM 35.3367 -119.3825 321° Northwest 453 521 36,000 387 Climbing Los Angeles Center
Thu 06:51:42 PM 35.4558 -119.5000 321° Northwest 457 526 36,000  Level Los Angeles Center
Thu 06:52:45 PM 35.5531 -119.5975 321° Northwest 457 526 36,000  Level Los Angeles Center
Thu 06:53:47 PM 35.6494 -119.6936 321° Northwest 455 524 36,000  Level Los Angeles Center
Thu 06:54:23 PM 35.7064 -119.7506 321° Northwest 455 524 36,000  Level Oakland Center
Thu 06:55:25 PM 35.8028 -119.8472 321° Northwest 455 524 36,000  Level Oakland Center
Thu 06:56:27 PM 35.8989 -119.9453 320° Northwest 454 522 36,000 -341 Level Oakland Center
Thu 06:57:28 PM 36.0136 -120.0600 321° Northwest 447 514 35,300 -780 Descending Oakland Center
Thu 06:58:30 PM 36.1100 -120.1578 321° Northwest 448 516 34,400 -919 Descending Oakland Center
Thu 06:59:32 PM 36.2072 -120.2569 321° Northwest 453 521 33,400 -941 Descending Oakland Center
Thu 07:01:35 PM 36.3950 -120.4500 320° Northwest 440 506 31,500 -941 Descending Oakland Center
Thu 07:02:37 PM 36.4922 -120.5514 320° Northwest 451 519 30,500 -976 Descending Oakland Center
Thu 07:03:38 PM 36.5900 -120.6508 321° Northwest 454 522 29,500 -1,707 Descending Oakland Center
Thu 07:04:40 PM 36.7019 -120.7697 320° Northwest 447 514 27,000 -2,419 Descending Oakland Center
Thu 07:05:42 PM 36.7892 -120.8642 319° Northwest 423 487 24,500 -2,335 Descending Oakland Center
Thu 07:07:45 PM 36.9500 -121.0500 317° Northwest 399 459 19,800 -2,303 Descending Oakland Center
Thu 07:08:47 PM 37.0294 -121.1411 318° Northwest 394 453 17,400 -2,274 Descending Oakland Center
Thu 07:09:49 PM 37.1058 -121.2278 318° Northwest 375 432 15,100 -2,488 Descending Oakland Center
Thu 07:10:50 PM 37.1953 -121.3319 317° Northwest 368 423 12,300 -2,439 Descending Oakland Center
Thu 07:11:52 PM 37.2664 -121.4133 318° Northwest 354 407 10,100 -1,500 Descending Oakland Center
Thu 07:12:54 PM 37.3306 -121.4894 317° Northwest 327 376 9,200 -1,024 Descending Oakland Center
Thu 07:13:55 PM 37.3919 -121.5606 317° Northwest 294 338 8,000 -1,122 Descending Oakland Center
Thu 07:14:57 PM 37.4492 -121.6267 317° Northwest 285 328 6,900 -585 Descending Oakland Center
Thu 07:15:58 PM 37.4833 -121.7167 296° West 260 299 6,800 -446 Descending Northern Cal TRACON
Thu 07:16:58 PM 37.5167 -121.8000 297° West 259 298 6,000 -400 Descending Northern Cal TRACON
Thu 07:17:58 PM 37.5500 -121.8667 302° West 253 291 6,000 -450 Level Northern Cal TRACON
Thu 07:18:58 PM 37.5667 -121.9500 284° West 246 283 5,100 -1,100 Descending Northern Cal TRACON
Thu 07:19:58 PM 37.6000 -122.0333 297° West 237 273 3,800 -1,300 Descending Northern Cal TRACON
Thu 07:20:58 PM 37.6167 -122.1000 288° West 213 245 2,500 -1,150 Descending Northern Cal TRACON
Thu 07:21:58 PM 37.6500 -122.1500 310° West 163 188 1,500 -850 Descending Northern Cal TRACON
Thu 07:22:58 PM 37.6833 -122.1833 322° Northwest 127 146 800 -700 Descending Northern Cal TRACON
Thu 07:26:00 PM 37.7167 -122.2167 270° West  Level FlightAware Approximate

Login

Don't have an account? Register now (free) for customized features, flight alerts, and more!